Time;durP1;ratioP1;P1;durP2;ratioP2;P2;SDS_P1;SDS_P2;PMS_P1;PMS_P2;Temp;Humidity;BMP_temperature;BMP_pressure;BME280_temperature;BME280_humidity;BME280_pressure;Samples;Min_cycle;Max_cycle;Signal;HPM_P1;HPM_P2
2022/07/22 00:00:41;;;;;;;9.65;6.63;;;;;;;;;;5054523;28;20483;-83
2022/07/22 00:03:20;;;;;;;6.32;5.72;;;;;;;;;;5055459;28;20076;-84
2022/07/22 00:05:49;;;;;;;6.65;6.05;;;;;;;;;;5041713;28;20045;-84
2022/07/22 00:08:16;;;;;;;7.15;5.95;;;;;;;;;;5055085;28;20072;-85
2022/07/22 00:10:43;;;;;;;8.52;6.47;;;;;;;;;;5054212;28;20052;-84
2022/07/22 00:13:10;;;;;;;7.20;6.60;;;;;;;;;;5053250;28;20052;-84
2022/07/22 00:15:38;;;;;;;7.65;6.68;;;;;;;;;;5053657;28;20128;-85
2022/07/22 00:18:05;;;;;;;7.15;6.45;;;;;;;;;;5053543;28;20080;-85
2022/07/22 00:20:32;;;;;;;7.57;6.50;;;;;;;;;;5053733;28;20405;-84
2022/07/22 00:23:00;;;;;;;11.90;6.82;;;;;;;;;;5052642;28;20041;-84
2022/07/22 00:25:28;;;;;;;7.50;6.78;;;;;;;;;;5055573;28;20410;-85
2022/07/22 00:27:56;;;;;;;13.55;7.15;;;;;;;;;;5057202;28;20052;-84
2022/07/22 00:30:23;;;;;;;8.38;6.60;;;;;;;;;;5074423;28;20087;-84
2022/07/22 00:32:50;;;;;;;8.55;7.05;;;;;;;;;;5056792;28;20044;-85
2022/07/22 00:35:17;;;;;;;7.03;6.43;;;;;;;;;;5058153;28;20075;-85
2022/07/22 00:37:44;;;;;;;8.18;6.93;;;;;;;;;;5081316;28;20055;-84
2022/07/22 00:40:12;;;;;;;7.88;7.07;;;;;;;;;;5062005;28;20125;-84
2022/07/22 00:42:39;;;;;;;7.85;7.10;;;;;;;;;;5059287;28;20483;-85
2022/07/22 00:45:07;;;;;;;8.00;7.05;;;;;;;;;;5076697;28;20505;-84
2022/07/22 00:47:35;;;;;;;7.13;6.38;;;;;;;;;;5079361;28;20057;-85
2022/07/22 00:50:02;;;;;;;7.82;7.13;;;;;;;;;;5058419;28;20082;-85
2022/07/22 00:52:29;;;;;;;8.18;7.38;;;;;;;;;;5059759;28;20150;-84
2022/07/22 00:54:57;;;;;;;8.68;6.93;;;;;;;;;;5055766;28;20424;-84
2022/07/22 00:57:24;;;;;;;8.88;7.63;;;;;;;;;;5055250;28;20541;-84
2022/07/22 00:59:51;;;;;;;7.95;6.50;;;;;;;;;;5055629;28;20102;-85
2022/07/22 01:02:18;;;;;;;7.88;6.82;;;;;;;;;;5055827;28;20051;-84
2022/07/22 01:04:45;;;;;;;7.60;6.90;;;;;;;;;;5056105;28;20113;-85
2022/07/22 01:07:12;;;;;;;8.52;7.45;;;;;;;;;;5073440;28;20105;-85
2022/07/22 01:09:43;;;;;;;8.07;7.28;;;;;;;;;;5055927;28;20067;-84
2022/07/22 01:12:10;;;;;;;7.85;7.15;;;;;;;;;;5073613;28;20413;-84
2022/07/22 01:14:38;;;;;;;7.50;6.80;;;;;;;;;;5073778;28;20098;-84
2022/07/22 01:17:05;;;;;;;8.30;7.13;;;;;;;;;;5056322;28;20079;-84
2022/07/22 01:19:32;;;;;;;7.65;6.85;;;;;;;;;;5056396;28;20040;-84
2022/07/22 01:21:59;;;;;;;9.52;7.20;;;;;;;;;;5056086;28;20087;-84
2022/07/22 01:24:27;;;;;;;10.13;8.05;;;;;;;;;;5055872;28;20094;-85
2022/07/22 01:26:54;;;;;;;8.68;7.30;;;;;;;;;;5055598;28;20078;-84
2022/07/22 01:29:21;;;;;;;8.15;7.38;;;;;;;;;;5056054;28;20132;-85
2022/07/22 01:31:48;;;;;;;8.77;7.88;;;;;;;;;;5073771;28;20076;-85
2022/07/22 01:34:15;;;;;;;8.73;7.93;;;;;;;;;;5058316;28;20049;-84
2022/07/22 01:36:43;;;;;;;8.68;7.85;;;;;;;;;;5060679;28;20051;-85
2022/07/22 01:39:11;;;;;;;8.65;7.57;;;;;;;;;;5078656;28;20049;-84
2022/07/22 01:41:38;;;;;;;8.95;7.82;;;;;;;;;;5061097;28;20391;-84
2022/07/22 01:44:05;;;;;;;9.15;8.27;;;;;;;;;;5060838;28;20109;-84
2022/07/22 01:46:33;;;;;;;9.05;8.23;;;;;;;;;;5060994;28;20143;-83
2022/07/22 01:49:00;;;;;;;9.15;8.02;;;;;;;;;;5060794;28;20489;-84
2022/07/22 01:51:27;;;;;;;9.13;8.23;;;;;;;;;;5078094;28;20106;-83
2022/07/22 01:53:54;;;;;;;13.15;8.40;;;;;;;;;;5059720;28;20053;-84
2022/07/22 01:56:21;;;;;;;11.82;7.70;;;;;;;;;;5059380;28;20048;-84
2022/07/22 01:58:49;;;;;;;9.40;8.38;;;;;;;;;;5059936;28;20040;-85
2022/07/22 02:01:16;;;;;;;8.93;8.02;;;;;;;;;;5082024;28;20044;-84
2022/07/22 02:03:43;;;;;;;9.15;8.07;;;;;;;;;;5083789;28;20044;-85
2022/07/22 02:06:10;;;;;;;8.43;7.63;;;;;;;;;;5065088;28;20053;-85
2022/07/22 02:08:38;;;;;;;9.02;7.78;;;;;;;;;;5063283;28;20052;-85
2022/07/22 02:11:05;;;;;;;9.70;8.18;;;;;;;;;;5070322;28;20139;-85
2022/07/22 02:13:32;;;;;;;9.15;8.25;;;;;;;;;;5071032;28;20045;-85
2022/07/22 02:15:59;;;;;;;12.45;8.75;;;;;;;;;;5061403;28;20072;-84
2022/07/22 02:18:26;;;;;;;9.05;8.25;;;;;;;;;;5059142;28;20045;-84
2022/07/22 02:20:53;;;;;;;11.13;9.10;;;;;;;;;;5058755;28;20082;-84
2022/07/22 02:23:21;;;;;;;10.40;8.40;;;;;;;;;;5058501;28;20555;-84
2022/07/22 02:25:48;;;;;;;12.60;8.50;;;;;;;;;;5058433;28;20048;-84
2022/07/22 02:28:15;;;;;;;9.88;8.68;;;;;;;;;;5058563;28;20052;-85
2022/07/22 02:30:42;;;;;;;10.52;9.52;;;;;;;;;;5058623;28;20080;-84
2022/07/22 02:33:09;;;;;;;9.25;8.38;;;;;;;;;;5058813;28;20095;-84
2022/07/22 02:35:36;;;;;;;9.75;8.80;;;;;;;;;;5058614;28;20048;-85
2022/07/22 02:38:04;;;;;;;9.95;8.82;;;;;;;;;;5057827;28;20076;-85
2022/07/22 02:40:31;;;;;;;9.40;8.45;;;;;;;;;;5057871;28;20079;-85
2022/07/22 02:42:59;;;;;;;10.18;9.15;;;;;;;;;;5058210;28;20051;-84
2022/07/22 02:45:26;;;;;;;9.73;8.73;;;;;;;;;;5058317;28;20083;-85
2022/07/22 02:47:54;;;;;;;10.05;9.07;;;;;;;;;;5076340;28;20481;-84
2022/07/22 02:50:22;;;;;;;9.75;8.85;;;;;;;;;;5058497;28;20510;-84
2022/07/22 02:52:49;;;;;;;11.13;9.15;;;;;;;;;;5075606;28;20055;-84
2022/07/22 02:55:17;;;;;;;12.05;8.82;;;;;;;;;;5075974;28;20105;-84
2022/07/22 02:57:45;;;;;;;11.00;9.18;;;;;;;;;;5075978;28;20090;-84
2022/07/22 03:00:13;;;;;;;10.38;9.38;;;;;;;;;;5058099;28;20044;-84
2022/07/22 03:02:40;;;;;;;10.70;9.73;;;;;;;;;;5058594;28;20044;-84
2022/07/22 03:05:07;;;;;;;10.25;9.25;;;;;;;;;;5058316;28;20106;-84
2022/07/22 03:07:35;;;;;;;10.65;9.55;;;;;;;;;;5058186;28;20052;-84
2022/07/22 03:10:02;;;;;;;13.10;9.85;;;;;;;;;;5075658;28;20048;-84
2022/07/22 03:12:29;;;;;;;10.70;9.68;;;;;;;;;;5059004;28;20048;-84
2022/07/22 03:14:57;;;;;;;12.38;10.15;;;;;;;;;;5058763;28;20048;-85
2022/07/22 03:17:24;;;;;;;12.40;9.23;;;;;;;;;;5058954;28;20055;-85
2022/07/22 03:19:51;;;;;;;11.02;9.93;;;;;;;;;;5058211;28;20052;-84
2022/07/22 03:22:18;;;;;;;11.43;10.25;;;;;;;;;;5061563;28;20418;-84
2022/07/22 03:24:45;;;;;;;10.43;9.43;;;;;;;;;;5064611;28;20044;-84
2022/07/22 03:27:12;;;;;;;11.80;10.80;;;;;;;;;;5063042;28;20045;-85
2022/07/22 03:29:39;;;;;;;12.15;10.98;;;;;;;;;;5063282;28;20556;-84
2022/07/22 03:32:07;;;;;;;11.38;10.20;;;;;;;;;;5065664;28;20060;-85
2022/07/22 03:34:34;;;;;;;12.32;10.23;;;;;;;;;;5067922;28;20048;-85
2022/07/22 03:37:01;;;;;;;11.68;10.52;;;;;;;;;;5058874;28;20098;-84
2022/07/22 03:39:29;;;;;;;12.50;11.20;;;;;;;;;;5058800;28;20040;-84
2022/07/22 03:41:58;;;;;;;12.00;10.68;;;;;;;;;;5057752;28;20452;-83
2022/07/22 03:44:25;;;;;;;11.55;10.45;;;;;;;;;;5057673;28;20136;-84
2022/07/22 03:46:52;;;;;;;10.73;9.65;;;;;;;;;;5057870;28;20106;-84
2022/07/22 03:49:20;;;;;;;12.23;9.95;;;;;;;;;;5058165;28;20048;-84
2022/07/22 03:51:47;;;;;;;11.48;10.25;;;;;;;;;;5075051;28;20463;-84
2022/07/22 03:54:14;;;;;;;11.45;10.45;;;;;;;;;;5075149;28;20059;-85
2022/07/22 03:56:41;;;;;;;11.40;10.23;;;;;;;;;;5074489;28;20078;-84
2022/07/22 03:59:08;;;;;;;13.02;11.57;;;;;;;;;;5056942;28;20113;-84
2022/07/22 04:01:35;;;;;;;13.05;11.45;;;;;;;;;;5057146;28;20522;-85
2022/07/22 04:04:03;;;;;;;21.95;18.88;;;;;;;;;;5057087;28;20041;-85
2022/07/22 04:06:31;;;;;;;22.13;16.08;;;;;;;;;;5057633;28;20048;-85
2022/07/22 04:08:58;;;;;;;15.65;13.98;;;;;;;;;;5056824;28;20045;-84
2022/07/22 04:11:26;;;;;;;14.93;13.27;;;;;;;;;;5058124;28;20056;-83
2022/07/22 04:13:53;;;;;;;12.48;11.32;;;;;;;;;;5074384;28;20052;-84
2022/07/22 04:16:21;;;;;;;14.77;12.30;;;;;;;;;;5057041;28;20048;-84
2022/07/22 04:18:48;;;;;;;12.60;11.40;;;;;;;;;;5059061;28;20623;-85
2022/07/22 04:21:15;;;;;;;13.07;11.20;;;;;;;;;;5057474;28;20083;-84
2022/07/22 04:23:42;;;;;;;12.05;10.85;;;;;;;;;;5057035;28;20049;-84
2022/07/22 04:26:09;;;;;;;13.88;10.80;;;;;;;;;;5057362;28;20048;-85
2022/07/22 04:28:36;;;;;;;10.52;9.45;;;;;;;;;;5075366;28;20106;-84
2022/07/22 04:31:04;;;;;;;12.27;10.95;;;;;;;;;;5056901;28;20601;-83
2022/07/22 04:33:31;;;;;;;13.70;9.60;;;;;;;;;;5075426;28;20048;-84
2022/07/22 04:35:59;;;;;;;12.10;10.90;;;;;;;;;;5057881;28;20049;-85
2022/07/22 04:38:26;;;;;;;11.68;9.50;;;;;;;;;;5057831;28;20422;-84
2022/07/22 04:40:53;;;;;;;14.00;10.65;;;;;;;;;;5057594;28;20044;-85
2022/07/22 04:43:21;;;;;;;18.67;10.55;;;;;;;;;;5057516;28;20045;-85
2022/07/22 04:45:48;;;;;;;18.23;10.35;;;;;;;;;;5062805;28;20045;-85
2022/07/22 04:48:15;;;;;;;21.45;11.57;;;;;;;;;;5062726;28;20494;-85
2022/07/22 04:50:43;;;;;;;12.85;11.32;;;;;;;;;;5063155;28;20048;-85
2022/07/22 04:53:10;;;;;;;15.80;10.68;;;;;;;;;;5086359;28;20075;-86
2022/07/22 04:55:38;;;;;;;23.77;10.75;;;;;;;;;;5065420;28;20199;-84
2022/07/22 04:58:06;;;;;;;46.13;12.27;;;;;;;;;;5074358;28;20052;-85
2022/07/22 05:00:35;;;;;;;32.42;11.80;;;;;;;;;;5074000;28;20048;-84
2022/07/22 05:03:03;;;;;;;18.85;9.60;;;;;;;;;;5056152;28;20078;-84
2022/07/22 05:05:30;;;;;;;17.80;10.07;;;;;;;;;;5056101;28;20102;-84
2022/07/22 05:07:57;;;;;;;16.63;9.90;;;;;;;;;;5055068;28;20056;-84
2022/07/22 05:10:24;;;;;;;15.07;10.07;;;;;;;;;;5055930;28;20044;-84
2022/07/22 05:12:52;;;;;;;16.75;10.25;;;;;;;;;;5056046;28;20088;-83
2022/07/22 05:15:19;;;;;;;13.02;9.75;;;;;;;;;;5056262;28;20095;-83
2022/07/22 05:17:46;;;;;;;16.50;10.73;;;;;;;;;;5073267;28;20072;-84
2022/07/22 05:20:13;;;;;;;11.70;8.80;;;;;;;;;;5073460;28;20080;-84
2022/07/22 05:22:40;;;;;;;13.30;9.60;;;;;;;;;;5055880;28;20072;-85
2022/07/22 05:25:08;;;;;;;16.98;9.30;;;;;;;;;;5055099;28;20083;-84
2022/07/22 05:27:35;;;;;;;16.90;9.00;;;;;;;;;;5073040;28;20115;-85
2022/07/22 05:30:03;;;;;;;15.70;9.02;;;;;;;;;;5055384;28;20088;-84
2022/07/22 05:32:30;;;;;;;45.75;10.15;;;;;;;;;;5056147;28;20163;-82
2022/07/22 05:34:58;;;;;;;13.43;8.32;;;;;;;;;;5056107;28;20490;-85
2022/07/22 05:37:25;;;;;;;13.65;7.45;;;;;;;;;;5055939;28;20064;-84
2022/07/22 05:39:52;;;;;;;21.42;7.95;;;;;;;;;;5056103;28;20048;-84
2022/07/22 05:42:19;;;;;;;14.20;7.93;;;;;;;;;;5055823;28;20080;-85
2022/07/22 05:44:46;;;;;;;10.60;7.53;;;;;;;;;;5055359;28;20511;-84
2022/07/22 05:47:13;;;;;;;10.13;7.43;;;;;;;;;;5055087;28;20052;-84
2022/07/22 05:49:40;;;;;;;8.15;7.35;;;;;;;;;;5055596;28;20060;-85
2022/07/22 05:52:11;;;;;;;15.38;8.07;;;;;;;;;;5073561;28;20067;-85
2022/07/22 05:54:39;;;;;;;9.02;6.88;;;;;;;;;;5056711;28;20075;-85
2022/07/22 05:57:09;;;;;;;10.57;7.40;;;;;;;;;;5075186;28;20045;-84
2022/07/22 05:59:37;;;;;;;13.85;7.40;;;;;;;;;;5075988;28;20051;-85
2022/07/22 06:02:05;;;;;;;11.52;7.00;;;;;;;;;;5058039;28;20040;-85
2022/07/22 06:04:32;;;;;;;12.05;7.68;;;;;;;;;;5060102;28;20091;-84
2022/07/22 06:07:02;;;;;;;8.63;7.25;;;;;;;;;;5060868;28;20099;-84
2022/07/22 06:09:33;;;;;;;7.97;5.93;;;;;;;;;;5057190;28;20494;-84
2022/07/22 06:12:00;;;;;;;8.20;6.65;;;;;;;;;;5056737;28;20460;-85
2022/07/22 06:14:29;;;;;;;7.40;6.70;;;;;;;;;;5055997;28;20048;-84
2022/07/22 06:16:56;;;;;;;6.80;6.30;;;;;;;;;;5055142;28;20494;-85
2022/07/22 06:19:24;;;;;;;7.30;6.53;;;;;;;;;;5055776;28;20048;-86
2022/07/22 06:21:51;;;;;;;6.82;6.13;;;;;;;;;;5058697;28;20044;-85
2022/07/22 06:24:18;;;;;;;7.82;6.70;;;;;;;;;;5059041;28;20448;-85
2022/07/22 06:26:52;;;;;;;10.45;5.88;;;;;;;;;;5060262;28;20049;-85
2022/07/22 06:29:19;;;;;;;13.07;6.70;;;;;;;;;;5077927;28;20049;-85
2022/07/22 06:31:46;;;;;;;12.13;6.38;;;;;;;;;;5059641;28;20048;-85
2022/07/22 06:34:13;;;;;;;13.88;6.28;;;;;;;;;;5059049;28;20080;-85
2022/07/22 06:36:41;;;;;;;6.78;6.03;;;;;;;;;;5077179;28;20048;-86
2022/07/22 06:39:08;;;;;;;10.05;6.07;;;;;;;;;;5059186;28;20048;-85
2022/07/22 06:41:35;;;;;;;5.50;5.07;;;;;;;;;;5059611;28;20150;-85
2022/07/22 06:44:02;;;;;;;9.25;4.47;;;;;;;;;;5059602;28;20555;-85
2022/07/22 06:46:30;;;;;;;8.00;4.28;;;;;;;;;;5060585;28;20044;-85
2022/07/22 06:48:57;;;;;;;4.30;3.40;;;;;;;;;;5060040;28;20078;-85
2022/07/22 06:51:25;;;;;;;3.80;3.50;;;;;;;;;;5058528;28;20054;-85
2022/07/22 06:53:53;;;;;;;3.92;3.00;;;;;;;;;;5058805;28;20158;-85
2022/07/22 06:56:20;;;;;;;2.80;2.70;;;;;;;;;;5062279;28;20044;-83
2022/07/22 06:58:47;;;;;;;2.90;2.70;;;;;;;;;;5061378;28;20040;-83
2022/07/22 07:01:15;;;;;;;2.53;2.42;;;;;;;;;;5060216;28;20498;-84
2022/07/22 07:03:42;;;;;;;2.92;2.67;;;;;;;;;;5060825;28;20075;-83
2022/07/22 07:06:11;;;;;;;3.65;3.17;;;;;;;;;;5059371;28;20094;-82
2022/07/22 07:08:42;;;;;;;3.50;3.20;;;;;;;;;;5060251;28;20080;-83
2022/07/22 07:11:09;;;;;;;2.75;2.65;;;;;;;;;;5062975;28;20456;-85
2022/07/22 07:13:36;;;;;;;2.75;2.65;;;;;;;;;;5059930;28;20048;-82
2022/07/22 07:16:04;;;;;;;3.20;2.97;;;;;;;;;;5063290;28;20055;-83
2022/07/22 07:18:31;;;;;;;2.90;2.80;;;;;;;;;;5061019;28;20157;-84
2022/07/22 07:20:58;;;;;;;2.90;2.70;;;;;;;;;;5061944;28;20109;-83
2022/07/22 07:23:25;;;;;;;3.00;2.80;;;;;;;;;;5060436;28;20041;-86
2022/07/22 07:25:53;;;;;;;2.60;2.50;;;;;;;;;;5063987;28;20045;-84
2022/07/22 07:28:20;;;;;;;2.45;2.33;;;;;;;;;;5061139;28;20049;-84
2022/07/22 07:30:47;;;;;;;3.00;2.75;;;;;;;;;;5059537;28;20048;-84
2022/07/22 07:33:14;;;;;;;5.10;2.60;;;;;;;;;;5065142;28;20391;-85
2022/07/22 07:35:42;;;;;;;3.20;2.90;;;;;;;;;;5063574;28;20489;-84
2022/07/22 07:38:09;;;;;;;2.58;2.38;;;;;;;;;;5063969;28;20056;-82
2022/07/22 07:40:37;;;;;;;2.72;2.60;;;;;;;;;;5061859;28;20048;-84
2022/07/22 07:43:04;;;;;;;2.75;2.55;;;;;;;;;;5062138;28;20146;-84
2022/07/22 07:45:32;;;;;;;3.03;2.72;;;;;;;;;;5064187;28;20071;-81
2022/07/22 07:48:02;;;;;;;2.83;2.72;;;;;;;;;;5064663;28;20052;-85
2022/07/22 07:50:30;;;;;;;3.28;3.03;;;;;;;;;;5061186;28;20064;-83
2022/07/22 07:52:57;;;;;;;3.05;2.75;;;;;;;;;;5079043;28;20088;-81
2022/07/22 07:55:25;;;;;;;2.95;2.70;;;;;;;;;;5064499;28;20044;-84
2022/07/22 07:57:52;;;;;;;2.70;2.58;;;;;;;;;;5060915;28;20106;-81
2022/07/22 08:00:22;;;;;;;12.95;3.65;;;;;;;;;;5061444;28;20452;-79
2022/07/22 08:02:49;;;;;;;4.00;2.92;;;;;;;;;;5059144;28;20076;-85
2022/07/22 08:05:19;;;;;;;3.15;2.95;;;;;;;;;;5064451;28;20055;-85
2022/07/22 08:07:47;;;;;;;3.17;2.88;;;;;;;;;;5062178;28;20056;-86
2022/07/22 08:10:14;;;;;;;2.85;2.50;;;;;;;;;;5064415;28;20106;-83
2022/07/22 08:13:02;;;;;;;2.67;2.30;;;;;;;;;;5063255;28;20048;-84
2022/07/22 08:15:30;;;;;;;2.80;2.50;;;;;;;;;;5062674;28;20063;-85
2022/07/22 08:17:57;;;;;;;2.55;2.45;;;;;;;;;;5067597;28;20048;-84
2022/07/22 08:20:26;;;;;;;3.45;2.25;;;;;;;;;;5063581;28;20130;-85
2022/07/22 08:22:54;;;;;;;5.65;2.80;;;;;;;;;;5064901;28;20059;-84
2022/07/22 08:25:21;;;;;;;3.38;2.38;;;;;;;;;;5060080;28;20048;-85
2022/07/22 08:27:49;;;;;;;2.60;2.40;;;;;;;;;;5059797;28;20082;-81
2022/07/22 08:30:17;;;;;;;2.55;2.35;;;;;;;;;;5062037;28;20048;-84
2022/07/22 08:32:44;;;;;;;34.13;3.67;;;;;;;;;;5063551;28;20048;-83
2022/07/22 08:35:11;;;;;;;5.80;2.92;;;;;;;;;;5064893;28;20070;-82
2022/07/22 08:37:38;;;;;;;2.70;2.50;;;;;;;;;;5060713;28;20074;-83
2022/07/22 08:40:07;;;;;;;2.22;2.10;;;;;;;;;;5060942;28;20048;-83
2022/07/22 08:42:37;;;;;;;2.33;2.10;;;;;;;;;;5061186;28;20115;-83
2022/07/22 08:45:05;;;;;;;2.63;2.42;;;;;;;;;;5064364;28;20387;-82
2022/07/22 08:47:33;;;;;;;2.22;2.10;;;;;;;;;;5063445;28;20080;-86
2022/07/22 08:50:09;;;;;;;6.57;2.35;;;;;;;;;;5062823;28;20135;-84
2022/07/22 08:52:36;;;;;;;2.10;2.00;;;;;;;;;;5065757;28;20408;-84
2022/07/22 08:55:04;;;;;;;2.53;2.22;;;;;;;;;;5081680;28;20055;-83
2022/07/22 08:57:31;;;;;;;4.13;2.50;;;;;;;;;;5061664;28;20490;-83
2022/07/22 08:59:59;;;;;;;3.67;2.58;;;;;;;;;;5061123;28;20528;-83
2022/07/22 09:02:27;;;;;;;2.00;1.90;;;;;;;;;;5063254;28;20048;-86
2022/07/22 09:04:59;;;;;;;2.17;1.90;;;;;;;;;;5060995;28;20052;-83
2022/07/22 09:07:47;;;;;;;2.05;1.88;;;;;;;;;;5065430;28;20127;-83
2022/07/22 09:10:15;;;;;;;2.72;2.30;;;;;;;;;;5061805;28;20048;-82
2022/07/22 09:12:54;;;;;;;3.85;2.08;;;;;;;;;;5060845;28;20103;-83
2022/07/22 09:15:28;;;;;;;2.25;2.10;;;;;;;;;;5078488;28;20044;-84
2022/07/22 09:17:55;;;;;;;2.38;2.00;;;;;;;;;;5059434;28;20045;-84
2022/07/22 09:20:30;;;;;;;2.70;2.00;;;;;;;;;;5062945;28;20490;-84
2022/07/22 09:22:57;;;;;;;3.33;2.00;;;;;;;;;;5062172;28;20113;-83
2022/07/22 09:25:26;;;;;;;4.72;1.83;;;;;;;;;;5065112;28;20045;-84
2022/07/22 09:28:09;;;;;;;3.72;2.17;;;;;;;;;;5079162;28;20410;-85
2022/07/22 09:30:46;;;;;;;3.60;2.10;;;;;;;;;;5061383;28;20044;-83
2022/07/22 09:33:15;;;;;;;4.75;2.05;;;;;;;;;;5063342;28;20048;-84
2022/07/22 09:35:43;;;;;;;4.88;2.20;;;;;;;;;;5081200;28;20489;-84
2022/07/22 09:38:17;;;;;;;2.00;1.88;;;;;;;;;;5061207;28;20615;-84
2022/07/22 09:40:45;;;;;;;2.38;2.17;;;;;;;;;;5080397;28;20049;-86
2022/07/22 09:43:14;;;;;;;2.38;2.28;;;;;;;;;;5064945;28;20106;-85
2022/07/22 09:45:49;;;;;;;2.65;2.45;;;;;;;;;;5061852;28;20045;-86
2022/07/22 09:48:20;;;;;;;2.10;1.98;;;;;;;;;;5061626;28;20052;-84
2022/07/22 09:50:48;;;;;;;3.47;2.13;;;;;;;;;;5066323;28;20049;-85
2022/07/22 09:53:16;;;;;;;2.10;2.00;;;;;;;;;;5064230;28;20053;-85
2022/07/22 09:55:43;;;;;;;1.83;1.70;;;;;;;;;;5085169;28;20078;-87
2022/07/22 09:58:11;;;;;;;2.40;2.20;;;;;;;;;;5066088;28;20040;-84
2022/07/22 10:00:40;;;;;;;3.67;1.83;;;;;;;;;;5064855;28;20052;-86
2022/07/22 10:03:08;;;;;;;2.15;2.05;;;;;;;;;;5084645;28;20048;-85
2022/07/22 10:05:37;;;;;;;2.67;2.03;;;;;;;;;;5081508;28;20098;-82
2022/07/22 10:08:06;;;;;;;3.38;2.40;;;;;;;;;;5064956;28;20074;-84
2022/07/22 10:10:34;;;;;;;4.57;2.25;;;;;;;;;;5066341;28;20052;-87
2022/07/22 10:13:02;;;;;;;2.30;2.10;;;;;;;;;;5071165;28;20079;-85
2022/07/22 10:15:31;;;;;;;12.52;3.05;;;;;;;;;;5066281;28;20135;-86
2022/07/22 10:18:06;;;;;;;2.28;2.08;;;;;;;;;;5062064;28;20048;-83
2022/07/22 10:20:34;;;;;;;;;;;;;;;;;;5061971;28;20044;-86
2022/07/22 10:23:02;;;;;;;3.50;2.58;;;;;;;;;;5058978;28;19986;-87
2022/07/22 10:25:49;;;;;;;3.78;1.95;;;;;;;;;;5059869;28;20060;-86
2022/07/22 10:28:22;;;;;;;2.90;2.00;;;;;;;;;;5059189;28;20048;-86
2022/07/22 10:30:49;;;;;;;3.38;2.22;;;;;;;;;;5058480;28;20510;-86
2022/07/22 10:33:19;;;;;;;3.40;2.10;;;;;;;;;;5060922;28;20456;-86
2022/07/22 10:35:53;;;;;;;3.17;2.50;;;;;;;;;;5059147;28;20052;-88
2022/07/22 10:38:21;;;;;;;2.13;2.00;;;;;;;;;;5058173;28;20494;-88
2022/07/22 10:41:01;;;;;;;2.30;1.92;;;;;;;;;;5058366;28;20040;-88
2022/07/22 10:43:29;;;;;;;2.42;1.98;;;;;;;;;;5075978;28;20478;-87
2022/07/22 10:45:58;;;;;;;2.40;2.08;;;;;;;;;;5058233;28;20049;-88
2022/07/22 10:48:25;;;;;;;1.83;1.73;;;;;;;;;;5058212;28;20048;-86
2022/07/22 10:50:55;;;;;;;3.63;2.40;;;;;;;;;;5062389;28;20052;-84
2022/07/22 10:53:23;;;;;;;4.80;2.33;;;;;;;;;;5061917;28;20512;-85
2022/07/22 10:55:59;;;;;;;2.85;2.65;;;;;;;;;;5061453;28;20051;-85
2022/07/22 10:58:40;;;;;;;2.42;2.22;;;;;;;;;;5059759;28;20114;-86
2022/07/22 11:01:10;;;;;;;2.70;2.13;;;;;;;;;;5058949;28;20040;-85
2022/07/22 11:03:38;;;;;;;2.20;1.90;;;;;;;;;;5059894;28;20091;-86
2022/07/22 11:06:20;;;;;;;2.65;2.45;;;;;;;;;;5060832;28;20040;-84
2022/07/22 11:08:49;;;;;;;2.43;2.27;;;;;;;;;;5061314;28;20049;-86
2022/07/22 11:11:16;;;;;;;2.45;2.35;;;;;;;;;;5061839;28;20048;-85
2022/07/22 11:13:44;;;;;;;2.63;2.42;;;;;;;;;;5059793;28;20052;-87
2022/07/22 11:16:19;;;;;;;6.90;2.65;;;;;;;;;;5057822;28;20053;-86
2022/07/22 11:18:48;;;;;;;2.42;2.22;;;;;;;;;;5058264;28;20048;-89
2022/07/22 11:21:19;;;;;;;3.13;2.58;;;;;;;;;;5057607;28;20052;-86
2022/07/22 11:23:48;;;;;;;2.60;2.42;;;;;;;;;;5058588;28;20044;-87
2022/07/22 11:26:16;;;;;;;2.92;2.53;;;;;;;;;;5057536;28;20126;-85
2022/07/22 11:28:44;;;;;;;2.60;2.50;;;;;;;;;;5058697;28;20044;-86
2022/07/22 11:31:15;;;;;;;2.47;2.08;;;;;;;;;;5059043;28;20139;-89
2022/07/22 11:33:42;;;;;;;2.63;2.38;;;;;;;;;;5058451;28;20045;-89
2022/07/22 11:36:09;;;;;;;2.35;2.15;;;;;;;;;;5057792;28;20102;-88
2022/07/22 11:38:41;;;;;;;3.22;2.42;;;;;;;;;;5057180;28;20048;-87
2022/07/22 11:41:08;;;;;;;2.85;2.30;;;;;;;;;;5074698;28;20126;-86
2022/07/22 11:43:39;;;;;;;2.63;2.40;;;;;;;;;;5058020;28;20091;-85
2022/07/22 11:46:06;;;;;;;2.90;2.70;;;;;;;;;;5057264;28;20413;-86
2022/07/22 11:48:34;;;;;;;2.88;2.60;;;;;;;;;;5057079;28;20048;-86
2022/07/22 11:51:02;;;;;;;2.65;2.45;;;;;;;;;;5058291;28;20052;-84
2022/07/22 11:53:29;;;;;;;6.25;2.60;;;;;;;;;;5058076;28;20056;-85
2022/07/22 11:55:57;;;;;;;2.75;2.47;;;;;;;;;;5074487;28;20048;-86
2022/07/22 11:58:38;;;;;;;3.28;2.95;;;;;;;;;;5075381;28;20091;-89
2022/07/22 12:01:06;;;;;;;3.53;2.80;;;;;;;;;;5056604;28;20074;-87
2022/07/22 12:03:36;;;;;;;5.45;2.83;;;;;;;;;;5057055;28;20406;-85
2022/07/22 12:06:05;;;;;;;2.60;2.45;;;;;;;;;;5058161;28;20052;-87
2022/07/22 12:08:33;;;;;;;5.88;2.63;;;;;;;;;;5056797;28;20048;-85
2022/07/22 12:11:00;;;;;;;3.97;2.70;;;;;;;;;;5056453;28;20560;-86
2022/07/22 12:13:30;;;;;;;2.70;2.60;;;;;;;;;;5059762;28;20090;-86
2022/07/22 12:16:30;;;;;;;3.60;2.88;;;;;;;;;;5058644;28;20041;-87
2022/07/22 12:18:58;;;;;;;6.35;2.90;;;;;;;;;;5056889;28;20497;-86
2022/07/22 12:21:30;;;;;;;2.85;2.65;;;;;;;;;;5060903;28;20040;-85
2022/07/22 12:24:00;;;;;;;7.03;3.10;;;;;;;;;;5057567;28;20151;-85
2022/07/22 12:26:42;;;;;;;3.53;3.20;;;;;;;;;;5075537;28;20052;-85
2022/07/22 12:29:30;;;;;;;3.92;2.70;;;;;;;;;;5055844;28;20215;-85
2022/07/22 12:31:59;;;;;;;4.30;2.75;;;;;;;;;;5075134;28;20109;-84
2022/07/22 12:34:31;;;;;;;2.95;2.67;;;;;;;;;;5059173;28;20075;-86
2022/07/22 12:36:58;;;;;;;3.90;3.42;;;;;;;;;;5076188;28;20052;-85
2022/07/22 12:39:25;;;;;;;4.07;2.92;;;;;;;;;;5057206;28;20041;-87
2022/07/22 12:41:53;;;;;;;3.13;2.92;;;;;;;;;;5056666;28;20078;-87
2022/07/22 12:44:27;;;;;;;2.88;2.67;;;;;;;;;;5056821;28;20044;-87
2022/07/22 12:47:01;;;;;;;6.60;3.33;;;;;;;;;;5057198;28;20512;-85
2022/07/22 12:49:28;;;;;;;4.22;2.65;;;;;;;;;;5060437;28;20418;-85
2022/07/22 12:52:06;;;;;;;3.15;2.90;;;;;;;;;;5055701;28;20074;-88
2022/07/22 12:54:34;;;;;;;6.25;2.95;;;;;;;;;;5058179;28;20106;-87
2022/07/22 12:57:01;;;;;;;4.40;2.97;;;;;;;;;;5060295;28;20052;-85
2022/07/22 12:59:28;;;;;;;4.55;3.00;;;;;;;;;;5077246;28;20044;-86
2022/07/22 13:01:56;;;;;;;3.35;3.03;;;;;;;;;;5060289;28;20048;-85
2022/07/22 13:04:23;;;;;;;3.25;2.95;;;;;;;;;;5056690;28;20098;-88
2022/07/22 13:06:50;;;;;;;3.20;3.00;;;;;;;;;;5056883;28;20045;-87
2022/07/22 13:09:18;;;;;;;3.40;3.10;;;;;;;;;;5078766;28;20052;-86
2022/07/22 13:11:46;;;;;;;4.97;2.75;;;;;;;;;;5066404;28;20052;-87
2022/07/22 13:14:14;;;;;;;3.08;2.80;;;;;;;;;;5065151;28;20517;-88
2022/07/22 13:16:41;;;;;;;3.20;3.00;;;;;;;;;;5074632;28;20113;-85
2022/07/22 13:19:08;;;;;;;3.42;2.97;;;;;;;;;;5056421;28;20049;-86
2022/07/22 13:21:35;;;;;;;6.38;3.25;;;;;;;;;;5057356;28;20074;-88
2022/07/22 13:24:03;;;;;;;2.90;2.70;;;;;;;;;;5057628;28;20079;-85
2022/07/22 13:26:30;;;;;;;3.28;2.97;;;;;;;;;;5056234;28;20099;-87
2022/07/22 13:28:57;;;;;;;3.15;2.85;;;;;;;;;;5055815;28;20071;-85
2022/07/22 13:31:26;;;;;;;3.75;2.97;;;;;;;;;;5056441;28;20555;-84
2022/07/22 13:33:53;;;;;;;5.40;3.08;;;;;;;;;;5057179;28;20070;-86
2022/07/22 13:36:22;;;;;;;5.43;3.17;;;;;;;;;;5058468;28;20056;-86
2022/07/22 13:38:51;;;;;;;4.43;2.85;;;;;;;;;;5058251;28;20056;-85
2022/07/22 13:41:18;;;;;;;3.05;2.80;;;;;;;;;;5073689;28;20055;-85
2022/07/22 13:43:45;;;;;;;3.35;3.05;;;;;;;;;;5074542;28;20045;-88
2022/07/22 13:46:13;;;;;;;6.07;2.90;;;;;;;;;;5056021;28;20090;-87
2022/07/22 13:48:40;;;;;;;4.43;3.13;;;;;;;;;;5056638;28;20132;-87
2022/07/22 13:51:07;;;;;;;2.80;2.70;;;;;;;;;;5056056;28;20049;-86
2022/07/22 13:53:35;;;;;;;3.05;2.90;;;;;;;;;;5074018;28;20044;-87
2022/07/22 13:56:02;;;;;;;3.25;2.95;;;;;;;;;;5056082;28;20417;-85
2022/07/22 13:58:30;;;;;;;6.05;3.15;;;;;;;;;;5057190;28;20497;-85
2022/07/22 14:01:00;;;;;;;3.03;2.83;;;;;;;;;;5056124;28;20052;-85
2022/07/22 14:03:28;;;;;;;3.00;2.67;;;;;;;;;;5057565;28;20458;-87
2022/07/22 14:05:55;;;;;;;3.13;2.92;;;;;;;;;;5055344;28;20080;-85
2022/07/22 14:08:23;;;;;;;4.38;3.30;;;;;;;;;;5055758;28;20049;-86
2022/07/22 14:10:50;;;;;;;4.38;3.00;;;;;;;;;;5056105;28;20057;-87
2022/07/22 14:13:17;;;;;;;3.90;2.78;;;;;;;;;;5074835;28;20044;-86
2022/07/22 14:15:44;;;;;;;4.22;2.70;;;;;;;;;;5075941;28;20094;-85
2022/07/22 14:18:13;;;;;;;6.15;2.97;;;;;;;;;;5056724;28;20052;-85
2022/07/22 14:20:40;;;;;;;8.15;2.65;;;;;;;;;;5056273;28;20056;-88
2022/07/22 14:23:11;;;;;;;3.38;2.72;;;;;;;;;;5073520;28;20570;-86
2022/07/22 14:25:38;;;;;;;5.25;2.83;;;;;;;;;;5056427;28;20048;-85
2022/07/22 14:28:06;;;;;;;2.97;2.78;;;;;;;;;;5056756;28;20095;-85
2022/07/22 14:30:53;;;;;;;2.78;2.42;;;;;;;;;;5058639;28;20104;-87
2022/07/22 14:33:20;;;;;;;7.50;2.75;;;;;;;;;;5056307;28;20055;-86
2022/07/22 14:35:47;;;;;;;2.92;2.70;;;;;;;;;;5057311;28;20045;-88
2022/07/22 14:38:15;;;;;;;2.92;2.63;;;;;;;;;;5057515;28;20053;-87
2022/07/22 14:40:42;;;;;;;4.60;2.70;;;;;;;;;;5057726;28;20460;-85
2022/07/22 14:43:09;;;;;;;5.00;2.47;;;;;;;;;;5060579;28;20049;-85
2022/07/22 14:45:56;;;;;;;2.92;2.72;;;;;;;;;;5064935;28;20123;-85